Ana Sayfa
METAR-TAF:

METAR-TAF

Havaalanları :

Erkilet Havalimanı

Kayseri, Türkiye

Enlem: 38-47N, Boylam: 035-29E, yükseklik: 1053 m

Güncel hava durumu gözlemi

Rapor saat 05:20 UTC de 40 dakika önce yapıldı.
Rüzgar doğu/kuzeydoğudan 1 kt
Sıcaklık -1°C
Nem 80%
Basınç 1025 hPa
Görüş mesafesi 10 km veya daha fazla
1500 m altında bulut yok ve kümülonimbus yok

METAR: LTAU 180520Z 07001KT CAVOK M01/M04 Q1025 NOSIG RMK RWY07 VRB01KT

Saat: 09:00 (06:00 UTC)

Tahmin

Rapor saat 04:40 UTC de 1 saat ve 20 dakika önce yapıldı.
Ayın 18'si saat 06 UTC'den ayın 19'si saat 06 UTC'ye kadar geçerli Tahmin
Rüzgar değişken yönden 2 kt
Görüş mesafesi 10 km veya daha fazla
1500 m altında bulut yok ve kümülonimbus yok

TAF: LTAU 180440Z 1806/1906 VRB02KT CAVOK

4.000'den fazla havaalanı için hava durumu gözlemleri ve tahminleri (METAR ve TAF raporları).

Kullanılabilir istasyonlar harita üzerinde sarı ve kırmızı noktalarla gösterilir.

İstasyonun adını görmek için fareyi noktanın üzerinde gezdirin.

Sonrasında hava gözlem ve tahminlerini görmek için tıklayın.

Haritayı değiştirmek için: yaklaştırmak için siyah artı işaretli yeşil düğmeye ve uzaklaştırmak için de eksi işaretli düğmeye hızla tıklayın; bitişik haritalar için yeşil okları kullanın.


METAR-TAF: